createdAt,value
2023-04-19T00:00:51.338Z,0.00
2023-04-19T00:01:51.346Z,0.00
2023-04-19T00:02:51.554Z,0.00
2023-04-19T00:03:51.457Z,0.00
2023-04-19T00:04:51.414Z,0.00
2023-04-19T00:05:51.353Z,0.00
2023-04-19T00:06:51.286Z,0.00
2023-04-19T00:07:51.255Z,0.00
2023-04-19T00:08:51.260Z,0.00
2023-04-19T00:09:51.234Z,0.00
2023-04-19T00:10:51.249Z,0.00
2023-04-19T00:11:51.222Z,0.00
2023-04-19T00:12:51.210Z,0.00
2023-04-19T00:13:51.197Z,0.00
2023-04-19T00:14:51.204Z,0.00
2023-04-19T00:15:51.198Z,0.00
2023-04-19T00:16:51.209Z,0.00
2023-04-19T00:17:51.207Z,0.00
2023-04-19T00:18:51.154Z,0.00
2023-04-19T00:19:51.132Z,0.00
2023-04-19T00:20:51.918Z,0.00
2023-04-19T00:21:51.143Z,0.00
2023-04-19T00:22:51.092Z,0.00
2023-04-19T00:23:51.106Z,0.00
2023-04-19T00:24:51.076Z,0.00
2023-04-19T00:25:51.058Z,0.00
2023-04-19T00:26:51.088Z,0.00
2023-04-19T00:27:51.039Z,0.00
2023-04-19T00:28:51.032Z,0.00
2023-04-19T00:29:51.025Z,0.00
2023-04-19T00:30:51.052Z,0.00
2023-04-19T00:31:50.991Z,0.00
2023-04-19T00:32:51.031Z,0.00
2023-04-19T00:33:50.960Z,0.00
2023-04-19T00:34:50.949Z,0.00
2023-04-19T00:35:50.975Z,0.00
2023-04-19T00:36:50.942Z,0.00
2023-04-19T00:37:50.950Z,0.00
2023-04-19T00:38:50.917Z,0.00
2023-04-19T00:39:50.889Z,0.00
2023-04-19T00:40:50.900Z,0.00
2023-04-19T00:41:50.896Z,0.00
2023-04-19T00:42:50.867Z,0.00
2023-04-19T00:43:50.854Z,0.00
2023-04-19T00:44:50.852Z,0.00
2023-04-19T00:45:50.882Z,0.00
2023-04-19T00:46:50.822Z,0.00
2023-04-19T00:47:50.858Z,0.00
2023-04-19T00:48:50.831Z,0.00
2023-04-19T00:49:50.773Z,0.00
2023-04-19T00:50:50.768Z,0.00
2023-04-19T00:51:50.780Z,0.00
2023-04-19T00:52:50.749Z,0.00
2023-04-19T00:53:50.748Z,0.00
2023-04-19T00:54:50.734Z,0.00
2023-04-19T00:55:50.732Z,0.00
2023-04-19T00:56:50.711Z,0.00
2023-04-19T00:57:50.704Z,0.00
2023-04-19T00:58:50.688Z,0.00
2023-04-19T00:59:50.661Z,0.00
2023-04-19T01:00:50.679Z,0.00
2023-04-19T01:01:50.717Z,0.00
2023-04-19T01:02:50.731Z,0.00
2023-04-19T01:03:50.685Z,0.00
2023-04-19T01:04:50.608Z,0.00
2023-04-19T01:05:50.642Z,0.00
2023-04-19T01:06:50.603Z,0.00
2023-04-19T01:07:50.593Z,0.00
2023-04-19T01:08:50.560Z,0.00
2023-04-19T01:09:50.585Z,0.00
2023-04-19T01:10:50.572Z,0.00
2023-04-19T01:11:50.535Z,0.00
2023-04-19T01:12:50.519Z,0.00
2023-04-19T01:13:50.499Z,0.00
2023-04-19T01:14:50.506Z,0.00
2023-04-19T01:15:50.545Z,0.00
2023-04-19T01:16:50.476Z,0.00
2023-04-19T01:17:50.484Z,0.00
2023-04-19T01:18:50.461Z,0.00
2023-04-19T01:19:50.460Z,0.00
2023-04-19T01:20:50.442Z,0.00
2023-04-19T01:21:50.422Z,0.00
2023-04-19T01:22:50.420Z,0.00
2023-04-19T01:23:50.400Z,0.00
2023-04-19T01:24:50.381Z,0.00
2023-04-19T01:25:50.439Z,0.00
2023-04-19T01:26:50.357Z,0.00
2023-04-19T01:27:50.355Z,0.00
2023-04-19T01:28:50.334Z,0.00
2023-04-19T01:29:50.319Z,0.00
2023-04-19T01:30:50.384Z,0.00
2023-04-19T01:31:50.322Z,0.00
2023-04-19T01:32:50.403Z,0.00
2023-04-19T01:33:50.286Z,0.00
2023-04-19T01:34:50.287Z,0.00
2023-04-19T01:35:50.278Z,0.00
2023-04-19T01:36:50.258Z,0.00
2023-04-19T01:37:50.240Z,0.00
2023-04-19T01:38:50.229Z,0.00
2023-04-19T01:39:50.208Z,0.00
2023-04-19T01:40:50.285Z,0.00
2023-04-19T01:41:50.207Z,0.00
2023-04-19T01:42:50.174Z,0.00
2023-04-19T01:43:50.163Z,0.00
2023-04-19T01:44:50.159Z,0.00
2023-04-19T01:45:50.168Z,0.00
2023-04-19T01:46:50.243Z,0.00
2023-04-19T01:47:50.168Z,0.00
2023-04-19T01:48:50.129Z,0.00
2023-04-19T01:49:51.038Z,0.00
2023-04-19T01:50:50.107Z,0.00
2023-04-19T01:51:50.082Z,0.00
2023-04-19T01:52:50.057Z,0.00
2023-04-19T01:53:50.060Z,0.00
2023-04-19T01:54:50.036Z,0.00
2023-04-19T01:55:50.041Z,0.00
2023-04-19T01:56:50.015Z,0.00
2023-04-19T01:57:50.037Z,0.00
2023-04-19T01:58:50.002Z,0.00
2023-04-19T01:59:50.119Z,0.00
2023-04-19T02:00:49.997Z,0.00
2023-04-19T02:01:49.993Z,0.00
2023-04-19T02:02:50.097Z,0.00
2023-04-19T02:03:50.103Z,0.00
2023-04-19T02:04:49.920Z,0.00
2023-04-19T02:05:49.926Z,0.00
2023-04-19T02:06:49.917Z,0.00
2023-04-19T02:07:49.889Z,0.00
2023-04-19T02:08:49.878Z,0.00
2023-04-19T02:09:49.894Z,0.00
2023-04-19T02:10:49.929Z,0.00
2023-04-19T02:11:49.877Z,0.00
2023-04-19T02:12:49.833Z,0.00
2023-04-19T02:13:49.847Z,0.00
2023-04-19T02:14:49.819Z,0.00
2023-04-19T02:15:49.818Z,0.00
2023-04-19T02:16:49.863Z,0.00
2023-04-19T02:17:49.890Z,0.00
2023-04-19T02:18:49.762Z,0.00
2023-04-19T02:19:49.769Z,0.00
2023-04-19T02:20:49.779Z,0.00
2023-04-19T02:21:49.731Z,0.00
2023-04-19T02:22:49.742Z,0.00
2023-04-19T02:23:49.724Z,0.00
2023-04-19T02:24:49.715Z,0.00
2023-04-19T02:25:49.708Z,0.00
2023-04-19T02:26:49.672Z,0.00
2023-04-19T02:27:49.665Z,0.00
2023-04-19T02:28:49.662Z,0.00
2023-04-19T02:29:49.667Z,0.00
2023-04-19T02:30:49.674Z,0.00
2023-04-19T02:31:49.670Z,0.00
2023-04-19T02:32:49.603Z,0.00
2023-04-19T02:33:49.599Z,0.00
2023-04-19T02:34:49.588Z,0.00
2023-04-19T02:35:49.608Z,0.00
2023-04-19T02:36:49.572Z,0.00
2023-04-19T02:37:49.557Z,0.00
2023-04-19T02:38:49.546Z,0.00
2023-04-19T02:39:49.563Z,0.00
2023-04-19T02:40:49.513Z,0.00
2023-04-19T02:41:49.540Z,0.00
2023-04-19T02:42:49.507Z,0.00
2023-04-19T02:43:49.488Z,0.00
2023-04-19T02:44:49.490Z,0.00
2023-04-19T02:45:49.545Z,0.00
2023-04-19T02:46:49.469Z,0.00
2023-04-19T02:47:49.508Z,0.00
2023-04-19T02:48:49.437Z,0.00
2023-04-19T02:49:49.425Z,0.00
2023-04-19T02:50:49.411Z,0.00
2023-04-19T02:51:49.395Z,0.00
2023-04-19T02:52:49.400Z,0.00
2023-04-19T02:53:49.368Z,0.00
2023-04-19T02:54:49.388Z,0.00
2023-04-19T02:55:49.350Z,0.00
2023-04-19T02:56:49.340Z,0.00
2023-04-19T02:57:49.350Z,0.00
2023-04-19T02:58:49.306Z,0.00
2023-04-19T02:59:49.526Z,0.00
2023-04-19T03:00:49.298Z,0.00
2023-04-19T03:01:49.359Z,0.00
2023-04-19T03:02:49.360Z,0.00
2023-04-19T03:03:49.396Z,0.00
2023-04-19T03:04:49.247Z,0.00
2023-04-19T03:05:49.248Z,0.00
2023-04-19T03:06:49.242Z,0.00
2023-04-19T03:07:49.236Z,0.00
2023-04-19T03:08:49.198Z,0.00
2023-04-19T03:09:49.894Z,0.00
2023-04-19T03:10:49.196Z,0.00
2023-04-19T03:11:49.187Z,0.00
2023-04-19T03:12:49.190Z,0.00
2023-04-19T03:13:49.144Z,0.00
2023-04-19T03:14:49.139Z,0.00
2023-04-19T03:15:49.167Z,0.00
2023-04-19T03:16:49.102Z,0.00
2023-04-19T03:17:49.181Z,0.00
2023-04-19T03:18:49.711Z,0.00
2023-04-19T03:19:49.093Z,0.00
2023-04-19T03:20:49.074Z,0.00
2023-04-19T03:21:49.071Z,0.00
2023-04-19T03:22:49.061Z,0.00
2023-04-19T03:23:49.022Z,0.00
2023-04-19T03:24:49.021Z,0.00
2023-04-19T03:25:48.997Z,0.00
2023-04-19T03:26:48.997Z,0.00
2023-04-19T03:27:49.008Z,0.00
2023-04-19T03:28:48.957Z,0.00
2023-04-19T03:29:49.129Z,0.00
2023-04-19T03:30:48.937Z,0.00
2023-04-19T03:31:49.017Z,0.00
2023-04-19T03:32:48.979Z,0.00
2023-04-19T03:33:48.941Z,0.00
2023-04-19T03:34:48.922Z,0.00
2023-04-19T03:35:48.880Z,0.00
2023-04-19T03:36:48.866Z,0.00
2023-04-19T03:37:48.889Z,0.00
2023-04-19T03:38:49.364Z,0.00
2023-04-19T03:39:48.848Z,0.00
2023-04-19T03:40:48.828Z,0.00
2023-04-19T03:41:48.813Z,0.00
2023-04-19T03:42:48.800Z,0.00
2023-04-19T03:43:48.802Z,0.00
2023-04-19T03:44:48.779Z,0.00
2023-04-19T03:45:48.801Z,0.00
2023-04-19T03:46:48.814Z,0.00
2023-04-19T03:47:48.800Z,0.00
2023-04-19T03:48:48.744Z,0.00
2023-04-19T03:49:48.745Z,0.00
2023-04-19T03:50:48.716Z,0.00
2023-04-19T03:51:48.696Z,0.00
2023-04-19T03:52:48.676Z,0.00
2023-04-19T03:53:48.695Z,0.00
2023-04-19T03:54:48.657Z,0.00
2023-04-19T03:55:48.656Z,0.00
2023-04-19T03:56:48.639Z,0.00
2023-04-19T03:57:48.626Z,0.00
2023-04-19T03:58:48.635Z,0.00
2023-04-19T03:59:48.611Z,0.00
2023-04-19T04:00:48.588Z,0.00
2023-04-19T04:01:48.643Z,0.00
2023-04-19T04:02:48.741Z,0.00
2023-04-19T04:03:48.857Z,0.00
2023-04-19T04:04:48.833Z,0.00
2023-04-19T04:05:48.635Z,0.00
2023-04-19T04:06:48.522Z,0.00
2023-04-19T04:07:48.526Z,0.00
2023-04-19T04:08:48.537Z,0.00
2023-04-19T04:09:48.510Z,0.00
2023-04-19T04:10:48.474Z,0.00
2023-04-19T04:11:48.467Z,0.00
2023-04-19T04:12:48.459Z,0.00
2023-04-19T04:13:48.471Z,0.00
2023-04-19T04:14:48.445Z,0.00
2023-04-19T04:15:48.436Z,0.00
2023-04-19T04:16:48.471Z,0.00
2023-04-19T04:17:48.439Z,0.00
2023-04-19T04:18:48.405Z,0.00
2023-04-19T04:19:48.385Z,0.00
2023-04-19T04:20:48.387Z,0.00
2023-04-19T04:21:48.385Z,0.00
2023-04-19T04:22:48.347Z,0.00
2023-04-19T04:23:48.349Z,0.00
2023-04-19T04:24:48.324Z,0.00
2023-04-19T04:25:48.307Z,0.00
2023-04-19T04:26:48.290Z,0.00
2023-04-19T04:27:48.304Z,0.00
2023-04-19T04:28:48.283Z,0.00
2023-04-19T04:29:48.280Z,0.00
2023-04-19T04:30:48.259Z,0.00
2023-04-19T04:31:48.277Z,0.00
2023-04-19T04:32:48.282Z,0.00
2023-04-19T04:33:48.249Z,0.00
2023-04-19T04:34:48.216Z,0.00
2023-04-19T04:35:48.205Z,0.00
2023-04-19T04:36:48.205Z,0.00
2023-04-19T04:37:48.232Z,0.00
2023-04-19T04:38:48.195Z,0.00
2023-04-19T04:39:48.177Z,0.00
2023-04-19T04:40:48.164Z,0.00
2023-04-19T04:41:48.142Z,0.00
2023-04-19T04:42:48.142Z,0.00
2023-04-19T04:43:51.998Z,0.00
2023-04-19T04:44:49.128Z,0.00
2023-04-19T04:45:48.174Z,0.00
2023-04-19T04:46:48.083Z,0.00
2023-04-19T04:47:48.136Z,0.00
2023-04-19T04:48:48.089Z,0.00
2023-04-19T04:49:48.063Z,0.00
2023-04-19T04:50:48.047Z,0.00
2023-04-19T04:51:48.044Z,0.00
2023-04-19T04:52:48.057Z,0.00
2023-04-19T04:53:48.075Z,0.00
2023-04-19T04:54:48.010Z,0.00
2023-04-19T04:55:47.993Z,0.00
2023-04-19T04:56:47.998Z,0.00
2023-04-19T04:57:47.972Z,0.00
2023-04-19T04:58:47.977Z,0.00
2023-04-19T04:59:47.959Z,0.00
2023-04-19T05:00:47.963Z,0.00
2023-04-19T05:01:48.013Z,0.00
2023-04-19T05:02:47.998Z,0.00
2023-04-19T05:03:47.947Z,0.00
2023-04-19T05:04:47.923Z,0.00
2023-04-19T05:05:47.871Z,0.00
2023-04-19T05:06:47.857Z,0.00
2023-04-19T05:07:47.855Z,0.00
2023-04-19T05:08:47.834Z,0.00
2023-04-19T05:09:47.865Z,0.00
2023-04-19T05:10:47.826Z,0.00
2023-04-19T05:11:47.820Z,0.00
2023-04-19T05:12:47.789Z,0.00
2023-04-19T05:13:47.793Z,0.00
2023-04-19T05:14:47.767Z,0.00
2023-04-19T05:15:47.823Z,0.00
2023-04-19T05:16:47.920Z,0.00
2023-04-19T05:17:47.788Z,0.00
2023-04-19T05:18:47.790Z,0.00
2023-04-19T05:19:47.713Z,0.00
2023-04-19T05:20:47.710Z,0.00
2023-04-19T05:21:47.713Z,0.00
2023-04-19T05:22:47.674Z,0.00
2023-04-19T05:23:47.711Z,0.00
2023-04-19T05:24:47.668Z,0.00
2023-04-19T05:25:47.764Z,0.00
2023-04-19T05:26:47.636Z,0.00
2023-04-19T05:27:47.625Z,0.00
2023-04-19T05:28:47.686Z,0.00
2023-04-19T05:29:47.616Z,0.00
2023-04-19T05:30:47.584Z,0.00
2023-04-19T05:31:47.655Z,5.62
2023-04-19T05:32:47.642Z,5.62
2023-04-19T05:33:47.553Z,5.62
2023-04-19T05:34:47.556Z,5.62
2023-04-19T05:35:47.548Z,5.62
2023-04-19T05:36:47.528Z,5.62
2023-04-19T05:37:47.521Z,5.62
2023-04-19T05:38:47.495Z,5.62
2023-04-19T05:39:47.493Z,5.62
2023-04-19T05:40:47.509Z,5.62
2023-04-19T05:41:47.635Z,5.62
2023-04-19T05:42:47.461Z,5.62
2023-04-19T05:43:48.051Z,5.62
2023-04-19T05:44:47.429Z,5.62
2023-04-19T05:45:47.468Z,5.62
2023-04-19T05:46:47.437Z,5.62
2023-04-19T05:47:47.483Z,5.62
2023-04-19T05:48:47.398Z,5.62
2023-04-19T05:49:47.382Z,5.62
2023-04-19T05:50:47.372Z,5.62
2023-04-19T05:51:47.371Z,5.62
2023-04-19T05:52:47.385Z,5.62
2023-04-19T05:53:47.365Z,5.62
2023-04-19T05:54:47.349Z,5.62
2023-04-19T05:55:47.310Z,5.62
2023-04-19T05:56:47.304Z,11.25
2023-04-19T05:57:47.312Z,11.25
2023-04-19T05:58:47.273Z,11.25
2023-04-19T05:59:47.287Z,11.25
2023-04-19T06:00:47.305Z,11.25
2023-04-19T06:01:47.275Z,11.25
2023-04-19T06:02:47.413Z,11.25
2023-04-19T06:03:47.438Z,11.25
2023-04-19T06:04:47.387Z,11.25
2023-04-19T06:05:47.254Z,11.25
2023-04-19T06:06:47.184Z,11.25
2023-04-19T06:07:55.136Z,11.25
2023-04-19T06:08:48.191Z,11.25
2023-04-19T06:09:47.151Z,11.25
2023-04-19T06:10:54.546Z,11.25
2023-04-19T06:11:51.298Z,11.25
2023-04-19T06:12:47.114Z,11.25
2023-04-19T06:13:47.145Z,11.25
2023-04-19T06:14:47.131Z,11.25
2023-04-19T06:15:47.108Z,11.25
2023-04-19T06:16:47.110Z,11.25
2023-04-19T06:17:47.150Z,11.25
2023-04-19T06:18:47.043Z,11.25
2023-04-19T06:19:47.045Z,11.25
2023-04-19T06:20:47.033Z,11.25
2023-04-19T06:21:47.004Z,11.25
2023-04-19T06:22:46.997Z,11.25
2023-04-19T06:23:47.016Z,11.25
2023-04-19T06:24:47.014Z,11.25
2023-04-19T06:25:46.990Z,16.88
2023-04-19T06:26:46.968Z,16.88
2023-04-19T06:27:46.937Z,16.88
2023-04-19T06:28:46.943Z,16.88
2023-04-19T06:29:47.222Z,16.88
2023-04-19T06:30:46.923Z,16.88
2023-04-19T06:31:46.948Z,16.88
2023-04-19T06:32:46.923Z,16.88
2023-04-19T06:33:46.878Z,16.88
2023-04-19T06:34:46.881Z,16.88
2023-04-19T06:35:46.850Z,16.88
2023-04-19T06:36:46.862Z,16.88
2023-04-19T06:37:46.833Z,16.88
2023-04-19T06:38:46.874Z,16.88
2023-04-19T06:39:46.811Z,16.88
2023-04-19T06:40:46.795Z,22.50
2023-04-19T06:41:46.801Z,22.50
2023-04-19T06:42:46.783Z,22.50
2023-04-19T06:43:46.777Z,22.50
2023-04-19T06:44:46.797Z,22.50
2023-04-19T06:45:46.804Z,22.50
2023-04-19T06:46:46.740Z,22.50
2023-04-19T06:47:46.758Z,22.50
2023-04-19T06:48:46.732Z,22.50
2023-04-19T06:49:46.711Z,22.50
2023-04-19T06:50:46.701Z,28.12
2023-04-19T06:51:46.677Z,28.12
2023-04-19T06:52:46.711Z,33.75
2023-04-19T06:53:46.670Z,33.75
2023-04-19T06:54:46.655Z,39.38
2023-04-19T06:55:46.616Z,39.38
2023-04-19T06:56:46.639Z,45.00
2023-04-19T06:57:46.608Z,45.00
2023-04-19T06:58:46.600Z,45.00
2023-04-19T06:59:46.588Z,50.62
2023-04-19T07:00:46.611Z,50.62
2023-04-19T07:01:46.770Z,50.62
2023-04-19T07:02:46.622Z,50.62
2023-04-19T07:03:46.735Z,50.62
2023-04-19T07:04:46.604Z,50.62
2023-04-19T07:05:46.533Z,50.62
2023-04-19T07:06:46.532Z,56.25
2023-04-19T07:07:46.482Z,61.88
2023-04-19T07:08:50.243Z,67.50
2023-04-19T07:09:46.461Z,67.50
2023-04-19T07:10:46.495Z,67.50
2023-04-19T07:11:46.447Z,67.50
2023-04-19T07:12:46.438Z,73.12
2023-04-19T07:13:46.411Z,73.12
2023-04-19T07:14:46.424Z,73.12
2023-04-19T07:15:46.425Z,67.50
2023-04-19T07:16:46.398Z,67.50
2023-04-19T07:17:46.718Z,73.12
2023-04-19T07:18:46.372Z,78.75
2023-04-19T07:19:46.352Z,90.00
2023-04-19T07:20:46.376Z,95.62
2023-04-19T07:21:46.330Z,101.25
2023-04-19T07:22:46.595Z,106.88
2023-04-19T07:23:46.310Z,112.50
2023-04-19T07:24:46.307Z,118.12
2023-04-19T07:25:46.294Z,129.38
2023-04-19T07:26:46.269Z,135.00
2023-04-19T07:27:47.063Z,135.00
2023-04-19T07:28:46.258Z,135.00
2023-04-19T07:29:46.244Z,129.38
2023-04-19T07:30:46.236Z,146.25
2023-04-19T07:31:46.256Z,135.00
2023-04-19T07:32:46.385Z,129.38
2023-04-19T07:33:46.415Z,118.12
2023-04-19T07:34:46.173Z,112.50
2023-04-19T07:35:46.195Z,118.12
2023-04-19T07:36:46.165Z,123.75
2023-04-19T07:37:46.980Z,123.75
2023-04-19T07:38:46.130Z,123.75
2023-04-19T07:39:46.125Z,123.75
2023-04-19T07:40:46.125Z,123.75
2023-04-19T07:41:46.096Z,123.75
2023-04-19T07:42:46.097Z,123.75
2023-04-19T07:43:46.113Z,123.75
2023-04-19T07:44:46.061Z,123.75
2023-04-19T07:45:46.065Z,129.38
2023-04-19T07:46:46.135Z,129.38
2023-04-19T07:47:46.082Z,135.00
2023-04-19T07:48:46.025Z,135.00
2023-04-19T07:49:46.070Z,135.00
2023-04-19T07:50:46.034Z,146.25
2023-04-19T07:51:45.976Z,151.88
2023-04-19T07:52:45.986Z,146.25
2023-04-19T07:53:45.955Z,123.75
2023-04-19T07:54:45.953Z,135.00
2023-04-19T07:55:46.001Z,135.00
2023-04-19T07:56:45.968Z,129.38
2023-04-19T07:57:45.919Z,140.62
2023-04-19T07:58:50.811Z,129.38
2023-04-19T07:59:46.926Z,129.38
2023-04-19T08:00:45.926Z,140.62
2023-04-19T08:01:46.042Z,146.25
2023-04-19T08:02:46.262Z,129.38
2023-04-19T08:03:46.103Z,123.75
2023-04-19T08:04:46.076Z,118.12
2023-04-19T08:05:45.965Z,106.88
2023-04-19T08:06:45.845Z,106.88
2023-04-19T08:07:45.804Z,101.25
2023-04-19T08:08:45.840Z,101.25
2023-04-19T08:09:45.833Z,118.12
2023-04-19T08:10:45.788Z,123.75
2023-04-19T08:11:45.784Z,140.62
2023-04-19T08:12:57.449Z,140.62
2023-04-19T08:13:59.500Z,157.50
2023-04-19T08:14:59.347Z,157.50
2023-04-19T08:17:45.878Z,151.88
2023-04-19T08:18:45.682Z,151.88
2023-04-19T08:19:45.677Z,151.88
2023-04-19T08:20:45.670Z,151.88
2023-04-19T08:21:45.758Z,151.88
2023-04-19T08:22:45.636Z,146.25
2023-04-19T08:23:48.554Z,146.25
2023-04-19T08:24:45.658Z,146.25
2023-04-19T08:25:45.609Z,151.88
2023-04-19T08:26:45.606Z,151.88
2023-04-19T08:27:45.595Z,151.88
2023-04-19T08:28:45.578Z,151.88
2023-04-19T08:29:45.564Z,151.88
2023-04-19T08:30:45.564Z,157.50
2023-04-19T08:31:45.555Z,157.50
2023-04-19T08:32:45.642Z,157.50
2023-04-19T08:33:45.520Z,163.12
2023-04-19T08:34:45.518Z,163.12
2023-04-19T08:35:45.527Z,157.50
2023-04-19T08:36:51.844Z,157.50
2023-04-19T08:37:46.525Z,163.12
2023-04-19T08:38:51.840Z,157.50
2023-04-19T08:39:46.439Z,163.12
2023-04-19T08:40:45.438Z,163.12
2023-04-19T08:41:48.195Z,168.75
2023-04-19T08:42:45.415Z,163.12
2023-04-19T08:43:45.445Z,163.12
2023-04-19T08:44:59.595Z,157.50
2023-04-19T08:45:46.403Z,157.50
2023-04-19T08:46:45.382Z,157.50
2023-04-19T08:47:58.635Z,157.50
2023-04-19T08:48:46.433Z,157.50
2023-04-19T08:49:45.338Z,157.50
2023-04-19T08:50:56.473Z,157.50
2023-04-19T08:51:46.320Z,157.50
2023-04-19T08:52:54.820Z,157.50
2023-04-19T08:53:46.428Z,168.75
2023-04-19T08:54:45.290Z,163.12
2023-04-19T08:56:03.524Z,163.12
2023-04-19T08:56:46.262Z,163.12
2023-04-19T08:57:45.611Z,174.38
2023-04-19T08:59:04.038Z,168.75
2023-04-19T08:59:46.219Z,168.75
2023-04-19T09:00:45.222Z,168.75
2023-04-19T09:01:45.324Z,168.75
2023-04-19T09:02:47.471Z,168.75
2023-04-19T09:04:00.364Z,168.75
2023-04-19T09:04:46.476Z,174.38
2023-04-19T09:05:45.418Z,174.38
2023-04-19T09:06:45.296Z,180.00
2023-04-19T09:07:45.133Z,185.62
2023-04-19T09:08:45.140Z,185.62
2023-04-19T09:09:59.538Z,196.88
2023-04-19T09:10:46.099Z,196.88
2023-04-19T09:11:45.087Z,230.62
2023-04-19T09:12:45.070Z,286.88
2023-04-19T09:13:45.056Z,286.88
2023-04-19T09:14:53.839Z,444.38
2023-04-19T09:15:46.058Z,590.62
2023-04-19T09:16:45.050Z,613.12
2023-04-19T09:17:45.111Z,483.75
2023-04-19T09:18:56.277Z,478.12
2023-04-19T09:19:45.994Z,410.62
2023-04-19T09:20:45.009Z,326.25
2023-04-19T09:21:44.975Z,416.25
2023-04-19T09:22:44.979Z,230.62
2023-04-19T09:23:45.000Z,225.00
2023-04-19T09:26:11.282Z,213.75
2023-04-19T09:26:45.917Z,191.25
2023-04-19T09:27:44.897Z,185.62
2023-04-19T09:28:44.917Z,180.00
2023-04-19T09:29:44.877Z,174.38
2023-04-19T09:30:58.308Z,174.38
2023-04-19T09:31:51.581Z,174.38
2023-04-19T09:32:45.959Z,180.00
2023-04-19T09:33:45.001Z,174.38
2023-04-19T09:34:44.830Z,180.00
2023-04-19T09:35:44.816Z,174.38
2023-04-19T09:36:44.810Z,185.62
2023-04-19T09:38:44.823Z,168.75
2023-04-19T09:39:44.776Z,174.38
2023-04-19T09:40:44.758Z,236.25
2023-04-19T09:41:44.781Z,168.75
2023-04-19T09:43:05.375Z,174.38
2023-04-19T09:44:05.506Z,168.75
2023-04-19T09:45:16.934Z,168.75
2023-04-19T09:45:45.717Z,168.75
2023-04-19T09:46:44.732Z,196.88
2023-04-19T09:47:44.727Z,180.00
2023-04-19T09:48:44.669Z,174.38
2023-04-19T09:49:49.163Z,236.25
2023-04-19T09:50:54.010Z,416.25
2023-04-19T09:51:45.626Z,213.75
2023-04-19T09:52:44.618Z,213.75
2023-04-19T09:53:44.601Z,247.50
2023-04-19T09:54:44.610Z,292.50
2023-04-19T09:55:57.140Z,258.75
2023-04-19T09:56:45.573Z,500.62
2023-04-19T09:57:44.625Z,585.00
2023-04-19T09:58:51.245Z,483.75
2023-04-19T09:59:45.553Z,556.88
2023-04-19T10:00:50.040Z,787.50
2023-04-19T10:01:45.586Z,933.75
2023-04-19T10:02:44.561Z,618.75
2023-04-19T10:03:44.929Z,393.75
2023-04-19T10:05:45.583Z,219.38
2023-04-19T10:07:06.724Z,225.00
2023-04-19T10:07:45.468Z,303.75
2023-04-19T10:08:44.446Z,264.38
2023-04-19T10:09:53.035Z,315.00
2023-04-19T10:10:45.716Z,523.12
2023-04-19T10:11:47.893Z,579.38
2023-04-19T10:13:45.428Z,804.38
2023-04-19T10:14:44.379Z,1046.25
2023-04-19T10:15:51.330Z,1226.25
2023-04-19T10:16:45.390Z,1260.00
2023-04-19T10:17:44.377Z,1136.25
2023-04-19T10:18:44.347Z,990.00
2023-04-19T10:19:44.323Z,860.62
2023-04-19T10:20:44.331Z,753.75
2023-04-19T10:21:44.320Z,275.62
2023-04-19T10:22:44.288Z,191.25
2023-04-19T10:23:44.307Z,174.38
2023-04-19T10:24:45.212Z,157.50
2023-04-19T10:25:44.284Z,151.88
2023-04-19T10:26:44.254Z,157.50
2023-04-19T10:27:45.065Z,157.50
2023-04-19T10:28:44.220Z,168.75
2023-04-19T10:29:44.234Z,163.12
2023-04-19T10:30:44.209Z,163.12
2023-04-19T10:31:44.253Z,163.12
2023-04-19T10:32:44.234Z,151.88
2023-04-19T10:33:44.196Z,174.38
2023-04-19T10:34:44.171Z,168.75
2023-04-19T10:35:44.215Z,174.38
2023-04-19T10:36:44.144Z,168.75
2023-04-19T10:37:44.136Z,168.75
2023-04-19T10:38:44.112Z,168.75
2023-04-19T10:39:44.113Z,163.12
2023-04-19T10:40:44.097Z,157.50
2023-04-19T10:41:44.113Z,157.50
2023-04-19T10:42:44.062Z,157.50
2023-04-19T10:43:44.062Z,151.88
2023-04-19T10:44:44.038Z,151.88
2023-04-19T10:45:44.157Z,146.25
2023-04-19T10:46:44.039Z,146.25
2023-04-19T10:47:44.100Z,135.00
2023-04-19T10:48:44.199Z,135.00
2023-04-19T10:49:44.004Z,129.38
2023-04-19T10:50:43.986Z,129.38
2023-04-19T10:51:43.964Z,123.75
2023-04-19T10:52:43.988Z,123.75
2023-04-19T10:53:43.966Z,129.38
2023-04-19T10:54:43.928Z,129.38
2023-04-19T10:55:43.960Z,129.38
2023-04-19T10:56:43.905Z,129.38
2023-04-19T10:57:43.897Z,123.75
2023-04-19T10:58:43.895Z,123.75
2023-04-19T10:59:43.898Z,123.75
2023-04-19T11:00:43.887Z,123.75
2023-04-19T11:01:43.919Z,129.38
2023-04-19T11:02:43.909Z,129.38
2023-04-19T11:03:44.107Z,129.38
2023-04-19T11:04:43.866Z,129.38
2023-04-19T11:05:43.864Z,135.00
2023-04-19T11:06:43.809Z,135.00
2023-04-19T11:07:43.809Z,135.00
2023-04-19T11:08:43.771Z,129.38
2023-04-19T11:09:43.763Z,129.38
2023-04-19T11:10:43.755Z,129.38
2023-04-19T11:11:43.776Z,123.75
2023-04-19T11:12:43.746Z,129.38
2023-04-19T11:13:43.727Z,123.75
2023-04-19T11:14:43.719Z,123.75
2023-04-19T11:15:43.755Z,118.12
2023-04-19T11:16:46.428Z,112.50
2023-04-19T11:17:44.005Z,112.50
2023-04-19T11:18:43.681Z,118.12
2023-04-19T11:19:43.668Z,112.50
2023-04-19T11:20:43.687Z,118.12
2023-04-19T11:21:43.631Z,118.12
2023-04-19T11:22:43.641Z,106.88
2023-04-19T11:23:43.639Z,106.88
2023-04-19T11:24:43.604Z,112.50
2023-04-19T11:25:43.585Z,112.50
2023-04-19T11:26:43.572Z,112.50
2023-04-19T11:27:43.580Z,95.62
2023-04-19T11:28:43.544Z,101.25
2023-04-19T11:29:43.545Z,106.88
2023-04-19T11:30:43.528Z,95.62
2023-04-19T11:31:43.613Z,101.25
2023-04-19T11:32:43.579Z,95.62
2023-04-19T11:33:43.538Z,95.62
2023-04-19T11:34:43.496Z,95.62
2023-04-19T11:35:43.491Z,101.25
2023-04-19T11:36:43.470Z,101.25
2023-04-19T11:37:43.493Z,101.25
2023-04-19T11:38:43.448Z,101.25
2023-04-19T11:39:43.445Z,101.25
2023-04-19T11:40:43.431Z,106.88
2023-04-19T11:41:43.433Z,106.88
2023-04-19T11:42:43.393Z,106.88
2023-04-19T11:43:43.431Z,101.25
2023-04-19T11:44:43.387Z,101.25
2023-04-19T11:45:43.394Z,101.25
2023-04-19T11:46:43.399Z,101.25
2023-04-19T11:47:43.417Z,101.25
2023-04-19T11:48:43.366Z,101.25
2023-04-19T11:49:43.364Z,101.25
2023-04-19T11:50:43.311Z,101.25
2023-04-19T11:51:43.319Z,101.25
2023-04-19T11:52:43.290Z,101.25
2023-04-19T11:53:43.324Z,95.62
2023-04-19T11:54:43.271Z,95.62
2023-04-19T11:55:43.273Z,95.62
2023-04-19T11:56:43.245Z,101.25
2023-04-19T11:57:43.251Z,101.25
2023-04-19T11:58:43.246Z,112.50
2023-04-19T11:59:43.242Z,118.12
2023-04-19T12:00:43.195Z,95.62
2023-04-19T12:01:43.220Z,95.62
2023-04-19T12:02:43.352Z,112.50
2023-04-19T12:03:43.451Z,112.50
2023-04-19T12:04:43.341Z,112.50
2023-04-19T12:05:43.405Z,84.38
2023-04-19T12:06:43.129Z,95.62
2023-04-19T12:07:43.140Z,84.38
2023-04-19T12:08:43.111Z,95.62
2023-04-19T12:09:43.140Z,101.25
2023-04-19T12:10:43.098Z,95.62
2023-04-19T12:11:43.098Z,95.62
2023-04-19T12:12:43.076Z,84.38
2023-04-19T12:13:43.066Z,95.62
2023-04-19T12:14:43.044Z,90.00
2023-04-19T12:15:43.151Z,78.75
2023-04-19T12:16:43.081Z,78.75
2023-04-19T12:17:54.564Z,95.62
2023-04-19T12:18:43.997Z,106.88
2023-04-19T12:19:42.993Z,95.62
2023-04-19T12:20:42.992Z,73.12
2023-04-19T12:21:42.993Z,78.75
2023-04-19T12:22:42.965Z,67.50
2023-04-19T12:23:42.960Z,90.00
2023-04-19T12:24:42.926Z,95.62
2023-04-19T12:25:42.940Z,78.75
2023-04-19T12:26:42.932Z,73.12
2023-04-19T12:27:42.919Z,84.38
2023-04-19T12:28:42.897Z,84.38
2023-04-19T12:29:42.890Z,78.75
2023-04-19T12:30:42.889Z,61.88
2023-04-19T12:31:42.901Z,61.88
2023-04-19T12:32:42.939Z,73.12
2023-04-19T12:33:42.824Z,73.12
2023-04-19T12:34:42.833Z,84.38
2023-04-19T12:35:42.817Z,78.75
2023-04-19T12:36:42.799Z,78.75
2023-04-19T12:37:42.862Z,67.50
2023-04-19T12:38:42.776Z,56.25
2023-04-19T12:39:42.755Z,90.00
2023-04-19T12:40:42.758Z,84.38
2023-04-19T12:41:42.746Z,73.12
2023-04-19T12:42:42.729Z,67.50
2023-04-19T12:43:42.742Z,73.12
2023-04-19T12:44:42.708Z,67.50
2023-04-19T12:45:42.773Z,84.38
2023-04-19T12:46:42.693Z,78.75
2023-04-19T12:47:42.761Z,78.75
2023-04-19T12:48:42.665Z,84.38
2023-04-19T12:49:42.642Z,84.38
2023-04-19T12:50:42.628Z,78.75
2023-04-19T12:51:42.802Z,84.38
2023-04-19T12:52:42.658Z,84.38
2023-04-19T12:53:42.692Z,78.75
2023-04-19T12:54:42.605Z,84.38
2023-04-19T12:55:42.583Z,84.38
2023-04-19T12:56:42.576Z,84.38
2023-04-19T12:57:42.583Z,84.38
2023-04-19T12:58:42.553Z,78.75
2023-04-19T12:59:42.529Z,78.75
2023-04-19T13:00:42.518Z,78.75
2023-04-19T13:01:42.543Z,78.75